createdAt,value
2018-04-13T00:02:29.325Z,12.10
2018-04-13T00:04:59.521Z,12.10
2018-04-13T00:07:29.568Z,12.10
2018-04-13T00:10:00.765Z,12.00
2018-04-13T00:12:30.045Z,12.00
2018-04-13T00:15:14.385Z,11.90
2018-04-13T00:17:43.349Z,11.90
2018-04-13T00:20:12.173Z,12.00
2018-04-13T00:22:40.423Z,12.00
2018-04-13T00:25:13.865Z,12.10
2018-04-13T00:27:42.909Z,12.10
2018-04-13T00:30:11.877Z,12.10
2018-04-13T00:32:57.398Z,12.10
2018-04-13T00:35:28.629Z,12.00
2018-04-13T00:38:05.224Z,12.10
2018-04-13T00:40:34.121Z,12.10
2018-04-13T00:43:03.141Z,12.10
2018-04-13T00:45:33.165Z,12.10
2018-04-13T00:48:01.226Z,12.00
2018-04-13T00:50:30.249Z,12.00
2018-04-13T00:53:13.258Z,11.90
2018-04-13T00:55:41.370Z,11.90
2018-04-13T00:58:11.385Z,12.00
2018-04-13T01:00:41.386Z,12.00
2018-04-13T01:03:12.353Z,11.90
2018-04-13T01:05:59.897Z,11.80
2018-04-13T01:08:27.960Z,11.70
2018-04-13T01:11:08.808Z,11.70
2018-04-13T01:13:37.081Z,11.60
2018-04-13T01:16:07.245Z,11.60
2018-04-13T01:18:36.328Z,11.60
2018-04-13T01:21:07.661Z,11.50
2018-04-13T01:23:41.356Z,11.50
2018-04-13T01:26:10.381Z,11.50
2018-04-13T01:28:38.416Z,11.40
2018-04-13T01:31:12.621Z,11.40
2018-04-13T01:33:40.649Z,11.30
2018-04-13T01:36:11.213Z,11.40
2018-04-13T01:38:43.233Z,11.30
2018-04-13T01:41:13.233Z,11.20
2018-04-13T01:43:41.293Z,11.00
2018-04-13T01:46:09.345Z,10.90
2018-04-13T01:48:41.737Z,10.90
2018-04-13T01:51:09.773Z,11.00
2018-04-13T01:53:57.089Z,11.00
2018-04-13T01:56:26.080Z,10.90
2018-04-13T01:58:58.036Z,10.70
2018-04-13T02:01:30.597Z,10.50
2018-04-13T02:04:02.352Z,10.40
2018-04-13T02:06:38.280Z,10.30
2018-04-13T02:09:13.653Z,10.30
2018-04-13T02:11:47.325Z,10.20
2018-04-13T02:14:17.378Z,10.30
2018-04-13T02:16:46.387Z,10.30
2018-04-13T02:19:21.613Z,10.30
2018-04-13T02:21:50.672Z,10.30
2018-04-13T02:24:18.709Z,10.40
2018-04-13T02:26:49.320Z,10.40
2018-04-13T02:29:21.797Z,10.60
2018-04-13T02:31:50.808Z,10.50
2018-04-13T02:34:20.825Z,10.60
2018-04-13T02:36:50.800Z,10.50
2018-04-13T02:39:23.065Z,10.50
2018-04-13T02:41:56.072Z,10.50
2018-04-13T02:44:30.232Z,10.50
2018-04-13T02:47:06.672Z,10.50
2018-04-13T02:49:35.825Z,10.50
2018-04-13T02:52:05.883Z,10.50
2018-04-13T02:54:34.819Z,10.50
2018-04-13T02:57:07.004Z,10.50
2018-04-13T02:59:38.305Z,10.60
2018-04-13T03:02:06.533Z,10.60
2018-04-13T03:04:36.542Z,10.80
2018-04-13T03:07:05.499Z,10.80
2018-04-13T03:09:37.571Z,11.00
2018-04-13T03:12:05.639Z,11.20
2018-04-13T03:14:34.580Z,11.40
2018-04-13T03:17:04.572Z,11.60
2018-04-13T03:19:34.599Z,11.70
2018-04-13T03:22:03.447Z,11.80
2018-04-13T03:24:32.690Z,11.80
2018-04-13T03:27:00.783Z,11.90
2018-04-13T03:29:33.494Z,11.90
2018-04-13T03:32:02.444Z,11.90
2018-04-13T03:34:30.827Z,11.90
2018-04-13T03:37:01.535Z,11.80
2018-04-13T03:39:35.950Z,11.80
2018-04-13T03:42:04.178Z,11.80
2018-04-13T03:44:33.218Z,11.90
2018-04-13T03:47:03.994Z,12.00
2018-04-13T03:49:36.407Z,11.90
2018-04-13T03:52:10.115Z,11.90
2018-04-13T03:54:44.035Z,11.80
2018-04-13T03:57:19.847Z,11.80
2018-04-13T04:00:14.381Z,11.70
2018-04-13T04:02:56.214Z,11.60
2018-04-13T04:05:24.286Z,11.50
2018-04-13T04:07:52.332Z,11.40
2018-04-13T04:10:31.465Z,11.40
2018-04-13T04:13:00.425Z,11.40
2018-04-13T04:15:29.225Z,11.30
2018-04-13T04:18:03.433Z,11.20
2018-04-13T04:20:45.177Z,11.20
2018-04-13T04:23:28.205Z,11.20
2018-04-13T04:26:12.933Z,11.20
2018-04-13T04:28:42.893Z,11.10
2018-04-13T04:31:14.132Z,11.00
2018-04-13T04:33:44.152Z,11.00
2018-04-13T04:36:14.069Z,11.00
2018-04-13T04:38:42.093Z,11.00
2018-04-13T04:41:12.045Z,11.00
2018-04-13T04:43:44.109Z,10.90
2018-04-13T04:46:15.989Z,10.80
2018-04-13T04:48:46.001Z,10.80
2018-04-13T04:51:14.030Z,10.70
2018-04-13T04:53:43.057Z,10.80
2018-04-13T04:56:12.063Z,10.80
2018-04-13T04:58:40.087Z,10.80
2018-04-13T05:01:14.199Z,10.80
2018-04-13T05:03:43.230Z,10.80
2018-04-13T05:06:12.218Z,10.80
2018-04-13T05:08:42.249Z,10.80
2018-04-13T05:11:10.299Z,10.80
2018-04-13T05:13:50.731Z,10.70
2018-04-13T05:16:21.866Z,10.60
2018-04-13T05:18:51.214Z,10.50
2018-04-13T05:21:21.231Z,10.40
2018-04-13T05:23:50.223Z,10.30
2018-04-13T05:26:18.243Z,10.20
2018-04-13T05:28:50.764Z,10.20
2018-04-13T05:31:19.760Z,10.20
2018-04-13T05:34:01.591Z,10.20
2018-04-13T05:36:30.559Z,10.20
2018-04-13T05:38:59.539Z,10.20
2018-04-13T05:41:28.519Z,10.30
2018-04-13T05:44:01.928Z,10.30
2018-04-13T05:46:29.951Z,10.40
2018-04-13T05:49:01.463Z,10.50
2018-04-13T05:51:40.844Z,10.60
2018-04-13T05:54:08.875Z,10.50
2018-04-13T05:56:42.765Z,10.70
2018-04-13T05:59:11.759Z,10.70
2018-04-13T06:01:39.787Z,10.70
2018-04-13T06:04:08.831Z,10.80
2018-04-13T06:06:58.650Z,10.80
2018-04-13T06:09:28.642Z,10.80
2018-04-13T06:11:56.674Z,10.80
2018-04-13T06:14:28.874Z,10.80
2018-04-13T06:17:09.275Z,10.90
2018-04-13T06:19:37.322Z,10.80
2018-04-13T06:22:05.350Z,10.90
2018-04-13T06:24:35.366Z,10.80
2018-04-13T06:27:09.777Z,10.90
2018-04-13T06:29:46.962Z,10.90
2018-04-13T06:32:15.950Z,10.90
2018-04-13T06:34:48.355Z,11.00
2018-04-13T06:37:17.180Z,11.10
2018-04-13T06:39:49.382Z,11.10
2018-04-13T06:42:17.450Z,11.10
2018-04-13T06:44:45.471Z,11.10
2018-04-13T06:47:14.410Z,11.20
2018-04-13T06:49:43.334Z,11.20
2018-04-13T06:52:12.150Z,11.20
2018-04-13T06:54:43.342Z,11.20
2018-04-13T06:57:17.001Z,11.20
2018-04-13T06:59:48.897Z,11.20
2018-04-13T07:02:16.960Z,11.20
2018-04-13T07:04:46.883Z,11.20
2018-04-13T07:07:16.830Z,11.10
2018-04-13T07:09:52.818Z,11.10
2018-04-13T07:12:32.683Z,11.10
2018-04-13T07:15:03.838Z,11.10
2018-04-13T07:17:42.562Z,11.00
2018-04-13T07:20:17.238Z,11.00
2018-04-13T07:23:04.370Z,11.00
2018-04-13T07:25:38.111Z,11.00
2018-04-13T07:28:10.090Z,11.00
2018-04-13T07:30:57.974Z,10.90
2018-04-13T07:33:26.010Z,10.90
2018-04-13T07:36:15.302Z,10.90
2018-04-13T07:38:52.962Z,10.80
2018-04-13T07:41:24.695Z,10.90
2018-04-13T07:44:00.326Z,10.80
2018-04-13T07:46:31.798Z,10.90
2018-04-13T07:49:01.759Z,10.90
2018-04-13T07:51:29.774Z,10.80
2018-04-13T07:53:57.787Z,10.90
2018-04-13T07:56:27.458Z,10.80
2018-04-13T07:58:55.990Z,10.80
2018-04-13T08:01:27.703Z,10.70
2018-04-13T08:03:57.711Z,10.70
2018-04-13T08:06:34.273Z,10.70
2018-04-13T08:09:16.410Z,10.70
2018-04-13T08:11:52.439Z,10.70
2018-04-13T08:14:26.310Z,10.70
2018-04-13T08:17:01.138Z,10.60
2018-04-13T08:19:48.355Z,10.60
2018-04-13T08:22:16.427Z,10.60
2018-04-13T08:24:50.223Z,10.50
2018-04-13T08:27:30.695Z,10.50
2018-04-13T08:30:15.209Z,10.40
2018-04-13T08:32:44.107Z,10.40
2018-04-13T08:35:13.926Z,10.40
2018-04-13T08:37:45.037Z,10.40
2018-04-13T08:40:13.935Z,10.50
2018-04-13T08:42:47.722Z,10.60
2018-04-13T08:45:17.739Z,10.70
2018-04-13T08:47:50.151Z,10.80
2018-04-13T08:50:22.051Z,10.90
2018-04-13T08:52:52.041Z,10.90
2018-04-13T08:55:36.891Z,10.90
2018-04-13T08:58:15.991Z,11.20
2018-04-13T09:00:55.140Z,11.20
2018-04-13T09:03:29.262Z,11.50
2018-04-13T09:06:02.478Z,11.70
2018-04-13T09:08:34.278Z,11.70
2018-04-13T09:11:07.955Z,11.80
2018-04-13T09:13:37.891Z,12.00
2018-04-13T09:16:20.227Z,12.50
2018-04-13T09:18:50.910Z,14.40
2018-04-13T09:21:20.810Z,14.40
2018-04-13T09:23:50.766Z,15.30
2018-04-13T09:26:21.887Z,16.20
2018-04-13T09:28:55.722Z,16.50
2018-04-13T09:31:24.626Z,17.00
2018-04-13T09:33:53.410Z,17.70
2018-04-13T09:36:23.207Z,17.90
2018-04-13T09:38:51.210Z,17.90
2018-04-13T09:41:22.511Z,17.80
2018-04-13T09:43:50.576Z,18.30
2018-04-13T09:46:23.131Z,18.90
2018-04-13T09:48:56.737Z,19.30
2018-04-13T09:51:54.682Z,19.70
2018-04-13T09:54:30.039Z,21.20
2018-04-13T09:56:59.054Z,21.10
2018-04-13T09:59:32.830Z,22.10
2018-04-13T10:02:01.746Z,22.80
2018-04-13T10:04:35.362Z,23.80
2018-04-13T10:07:04.262Z,24.00
2018-04-13T10:09:32.338Z,24.70
2018-04-13T10:12:03.970Z,24.50
2018-04-13T10:14:31.990Z,23.50
2018-04-13T10:17:05.587Z,23.20
2018-04-13T10:19:45.250Z,23.20
2018-04-13T10:22:16.593Z,23.60
2018-04-13T10:24:50.330Z,23.50
2018-04-13T10:30:16.862Z,24.10
2018-04-13T10:32:53.339Z,24.10
2018-04-13T10:35:22.358Z,24.00
2018-04-13T10:37:51.335Z,23.90
2018-04-13T10:40:25.094Z,24.30
2018-04-13T10:42:58.593Z,24.40
2018-04-13T10:45:26.633Z,24.40
2018-04-13T10:48:01.862Z,24.00
2018-04-13T10:50:31.925Z,23.50
2018-04-13T10:52:59.941Z,23.40
2018-04-13T10:55:29.953Z,23.50
2018-04-13T10:58:11.258Z,24.00
2018-04-13T11:00:39.277Z,23.80
2018-04-13T11:03:09.225Z,23.20
2018-04-13T11:05:37.253Z,23.20
2018-04-13T11:08:11.677Z,22.10
2018-04-13T11:10:39.693Z,20.90
2018-04-13T11:13:08.693Z,20.20
2018-04-13T11:15:51.924Z,21.40
2018-04-13T11:18:22.645Z,23.70
2018-04-13T11:20:55.202Z,23.70
2018-04-13T11:23:42.250Z,24.40
2018-04-13T11:26:11.028Z,23.20
2018-04-13T11:28:39.053Z,23.20
2018-04-13T11:31:10.552Z,22.80
2018-04-13T11:33:38.576Z,21.90
2018-04-13T11:36:06.596Z,21.30
2018-04-13T11:38:40.744Z,22.50
2018-04-13T11:41:10.732Z,22.50
2018-04-13T11:43:40.639Z,23.50
2018-04-13T11:46:11.368Z,24.40
2018-04-13T11:48:43.167Z,24.40
2018-04-13T11:51:14.480Z,23.10
2018-04-13T11:53:47.243Z,20.20
2018-04-13T11:56:15.304Z,20.20
2018-04-13T11:58:43.328Z,20.30
2018-04-13T12:01:11.365Z,19.90
2018-04-13T12:03:52.552Z,19.10
2018-04-13T12:06:22.343Z,18.50
2018-04-13T12:08:58.179Z,18.40
2018-04-13T12:11:27.175Z,18.10
2018-04-13T12:13:57.332Z,17.80
2018-04-13T12:16:26.143Z,20.50
2018-04-13T12:18:57.904Z,21.30
2018-04-13T12:21:29.111Z,21.30
2018-04-13T12:23:57.157Z,21.50
2018-04-13T12:26:29.305Z,22.20
2018-04-13T12:28:58.242Z,21.50
2018-04-13T12:31:27.045Z,19.80
2018-04-13T12:33:56.717Z,19.10
2018-04-13T12:36:24.741Z,19.10
2018-04-13T12:38:52.773Z,19.00
2018-04-13T12:41:22.576Z,18.60
2018-04-13T12:43:50.593Z,18.60
2018-04-13T12:46:20.549Z,19.00
2018-04-13T12:48:48.569Z,18.50
2018-04-13T12:51:16.641Z,18.00
2018-04-13T12:53:49.231Z,17.60
2018-04-13T12:56:21.146Z,18.10
2018-04-13T12:58:50.773Z,18.40
2018-04-13T13:01:22.120Z,18.40
2018-04-13T13:03:51.040Z,17.50
2018-04-13T13:06:20.989Z,17.10
2018-04-13T13:08:51.079Z,16.70
2018-04-13T13:11:19.077Z,16.40
2018-04-13T13:13:50.546Z,15.90
2018-04-13T13:16:20.357Z,14.90
2018-04-13T13:18:49.181Z,14.80
2018-04-13T13:21:19.132Z,14.80
2018-04-13T13:23:49.161Z,14.70
2018-04-13T13:26:18.080Z,14.50
2018-04-13T13:28:48.765Z,14.60
2018-04-13T13:31:19.813Z,14.50
2018-04-13T13:33:49.846Z,14.50
2018-04-13T13:36:17.865Z,14.40
2018-04-13T13:38:45.901Z,14.10
2018-04-13T13:41:14.705Z,13.80
2018-04-13T13:43:42.729Z,13.80
2018-04-13T13:46:10.749Z,13.70
2018-04-13T13:48:51.213Z,13.40
2018-04-13T13:51:19.225Z,13.20
2018-04-13T13:53:48.149Z,12.90
2018-04-13T13:56:16.208Z,12.80
2018-04-13T13:58:45.901Z,12.60
2018-04-13T14:01:14.857Z,12.60
2018-04-13T14:03:42.877Z,12.60
2018-04-13T14:06:15.540Z,12.40
2018-04-13T14:08:54.033Z,12.30
2018-04-13T14:11:22.044Z,12.40
2018-04-13T14:13:50.856Z,12.40
2018-04-13T14:16:20.841Z,12.40
2018-04-13T14:18:55.349Z,12.10
2018-04-13T14:21:24.284Z,12.10
2018-04-13T14:23:52.305Z,12.20
2018-04-13T14:26:21.221Z,12.60
2018-04-13T14:28:50.141Z,12.80
2018-04-13T14:31:28.764Z,12.90
2018-04-13T14:33:59.852Z,12.70
2018-04-13T14:36:28.844Z,12.70
2018-04-13T14:38:57.764Z,12.20
2018-04-13T14:41:33.660Z,12.10
2018-04-13T14:44:01.740Z,12.10
2018-04-13T14:46:42.876Z,12.00
2018-04-13T14:49:14.789Z,12.00
2018-04-13T14:51:49.172Z,11.90
2018-04-13T14:54:18.140Z,11.80
2018-04-13T14:56:47.952Z,11.80
2018-04-13T14:59:17.939Z,11.80
2018-04-13T15:01:45.952Z,11.90
2018-04-13T15:04:14.900Z,11.70
2018-04-13T15:06:42.924Z,11.40
2018-04-13T15:11:35.315Z,11.00
2018-04-13T15:14:03.337Z,11.00
2018-04-13T15:16:32.264Z,11.10
2018-04-13T15:19:08.092Z,11.10
2018-04-13T15:21:37.140Z,11.10
2018-04-13T15:24:05.981Z,11.10
2018-04-13T15:26:35.936Z,11.00
2018-04-13T15:29:04.912Z,11.00
2018-04-13T15:31:34.936Z,11.00
2018-04-13T15:34:02.968Z,10.80
2018-04-13T15:36:30.989Z,10.80
2018-04-13T15:39:10.720Z,11.10
2018-04-13T15:41:38.732Z,11.10
2018-04-13T15:44:06.784Z,11.10
2018-04-13T15:46:37.625Z,11.00
2018-04-13T15:49:06.436Z,11.10
2018-04-13T15:51:37.774Z,11.00
2018-04-13T15:54:12.192Z,11.20
2018-04-13T15:56:41.164Z,11.20
2018-04-13T15:59:17.500Z,11.20
2018-04-13T16:01:48.971Z,11.20
2018-04-13T16:04:22.751Z,11.00
2018-04-13T16:06:50.804Z,10.90
2018-04-13T16:09:22.187Z,10.70
2018-04-13T16:11:50.211Z,10.70
2018-04-13T16:14:19.135Z,10.60
2018-04-13T16:16:54.036Z,10.50
2018-04-13T16:19:33.166Z,10.40
2018-04-13T16:22:03.096Z,10.30
2018-04-13T16:24:31.108Z,10.30
2018-04-13T16:26:59.900Z,10.10
2018-04-13T16:29:31.319Z,10.10
2018-04-13T16:32:04.128Z,10.00
2018-04-13T16:34:33.948Z,9.60
2018-04-13T16:37:02.745Z,9.40
2018-04-13T16:39:36.324Z,9.30
2018-04-13T16:42:04.312Z,9.30
2018-04-13T16:44:33.299Z,9.30
2018-04-13T16:47:03.116Z,9.30
2018-04-13T16:49:35.706Z,9.20
2018-04-13T16:52:05.672Z,9.20
2018-04-13T16:54:33.697Z,9.20
2018-04-13T16:57:01.708Z,9.20
2018-04-13T16:59:30.604Z,9.20
2018-04-13T17:01:59.587Z,9.10
2018-04-13T17:04:27.607Z,9.10
2018-04-13T17:07:00.874Z,9.00
2018-04-13T17:09:31.582Z,9.00
2018-04-13T17:12:00.510Z,9.00
2018-04-13T17:14:29.458Z,9.00
2018-04-13T17:16:58.363Z,9.00
2018-04-13T17:19:32.227Z,8.90
2018-04-13T17:22:00.230Z,8.90
2018-04-13T17:24:30.277Z,8.80
2018-04-13T17:27:02.617Z,8.70
2018-04-13T17:29:32.382Z,8.70
2018-04-13T17:32:00.397Z,8.60
2018-04-13T17:34:29.389Z,8.60
2018-04-13T17:36:57.429Z,8.50
2018-04-13T17:39:27.357Z,8.40
2018-04-13T17:41:59.440Z,8.30
2018-04-13T17:44:31.071Z,8.20
2018-04-13T17:47:00.088Z,8.20
2018-04-13T17:49:31.317Z,8.20
2018-04-13T17:52:00.249Z,8.20
2018-04-13T17:54:30.025Z,8.20
2018-04-13T17:56:58.050Z,8.20
2018-04-13T17:59:28.786Z,8.20
2018-04-13T18:02:05.134Z,8.20
2018-04-13T18:04:37.210Z,8.30
2018-04-13T18:07:07.890Z,8.30
2018-04-13T18:09:36.909Z,8.30
2018-04-13T18:12:07.658Z,8.30
2018-04-13T18:14:42.381Z,8.30
2018-04-13T18:17:13.230Z,8.30
2018-04-13T18:19:43.206Z,8.30
2018-04-13T18:22:14.770Z,8.20
2018-04-13T18:24:42.825Z,8.20
2018-04-13T18:27:10.869Z,8.10
2018-04-13T18:29:49.186Z,8.10
2018-04-13T18:32:18.251Z,8.10
2018-04-13T18:34:47.182Z,8.00
2018-04-13T18:37:20.386Z,8.00
2018-04-13T18:39:53.299Z,8.00
2018-04-13T18:42:21.366Z,8.00
2018-04-13T18:44:56.306Z,8.10
2018-04-13T18:47:29.182Z,8.00
2018-04-13T18:49:59.050Z,8.10
2018-04-13T18:52:27.570Z,8.10
2018-04-13T18:54:57.383Z,8.00
2018-04-13T18:57:29.734Z,8.00
2018-04-13T18:59:57.762Z,8.00
2018-04-13T19:02:26.042Z,8.00
2018-04-13T19:04:55.622Z,8.00
2018-04-13T19:07:28.618Z,8.10
2018-04-13T19:09:57.562Z,8.00
2018-04-13T19:12:25.589Z,8.10
2018-04-13T19:14:58.843Z,8.00
2018-04-13T19:17:29.555Z,8.10
2018-04-13T19:19:57.614Z,8.10
2018-04-13T19:22:25.635Z,8.10
2018-04-13T19:24:53.659Z,8.10
2018-04-13T19:27:21.755Z,8.10
2018-04-13T19:29:59.811Z,8.10
2018-04-13T19:32:27.854Z,8.10
2018-04-13T19:34:56.935Z,8.10
2018-04-13T19:37:25.751Z,8.10
2018-04-13T19:39:54.847Z,8.00
2018-04-13T19:42:24.862Z,8.00
2018-04-13T19:44:52.883Z,8.00
2018-04-13T19:47:21.902Z,7.90
2018-04-13T19:49:58.322Z,7.80
2018-04-13T19:52:26.488Z,7.80
2018-04-13T19:57:31.613Z,7.50
2018-04-13T20:00:05.422Z,7.50
2018-04-13T20:02:33.466Z,7.40
2018-04-13T20:05:02.443Z,7.40
2018-04-13T20:07:31.417Z,7.40
2018-04-13T20:10:02.882Z,7.30
2018-04-13T20:12:30.915Z,7.30
2018-04-13T20:14:59.086Z,7.20
2018-04-13T20:17:31.598Z,7.20
2018-04-13T20:19:59.626Z,7.10
2018-04-13T20:22:30.099Z,7.00
2018-04-13T20:25:01.767Z,7.00
2018-04-13T20:27:36.314Z,6.90
2018-04-13T20:30:06.979Z,6.70
2018-04-13T20:32:37.085Z,6.60
2018-04-13T20:35:06.855Z,6.60
2018-04-13T20:37:35.878Z,6.30
2018-04-13T20:40:08.982Z,6.30
2018-04-13T20:42:37.047Z,6.20
2018-04-13T20:45:08.071Z,6.20
2018-04-13T20:47:38.479Z,6.30
2018-04-13T20:50:08.822Z,6.30
2018-04-13T20:52:42.206Z,6.30
2018-04-13T20:55:11.293Z,6.30
2018-04-13T20:57:40.094Z,6.20
2018-04-13T21:00:10.080Z,6.20
2018-04-13T21:02:39.110Z,6.20
2018-04-13T21:05:09.097Z,6.20
2018-04-13T21:07:37.734Z,6.20
2018-04-13T21:12:44.396Z,6.20
2018-04-13T21:18:14.361Z,6.10
2018-04-13T21:23:17.972Z,6.10
2018-04-13T21:25:52.478Z,6.10
2018-04-13T21:30:58.918Z,6.10
2018-04-13T21:33:27.774Z,6.00
2018-04-13T21:36:01.682Z,6.10
2018-04-13T21:38:30.266Z,6.10
2018-04-13T21:40:58.675Z,6.10
2018-04-13T21:43:35.359Z,5.90
2018-04-13T21:46:05.379Z,5.90
2018-04-13T21:48:39.811Z,5.80
2018-04-13T21:51:22.002Z,5.70
2018-04-13T21:53:54.402Z,5.70
2018-04-13T21:56:24.409Z,5.70
2018-04-13T21:58:56.346Z,5.60
2018-04-13T22:01:28.023Z,5.60
2018-04-13T22:03:57.149Z,5.60
2018-04-13T22:06:28.279Z,5.50
2018-04-13T22:08:56.382Z,5.50
2018-04-13T22:11:25.754Z,5.50
2018-04-13T22:14:11.539Z,5.60
2018-04-13T22:16:40.518Z,5.50
2018-04-13T22:19:09.602Z,5.50
2018-04-13T22:21:37.725Z,5.40
2018-04-13T22:24:12.161Z,5.30
2018-04-13T22:26:43.128Z,5.10
2018-04-13T22:29:12.165Z,5.10
2018-04-13T22:31:41.189Z,5.00
2018-04-13T22:34:09.305Z,5.00
2018-04-13T22:36:42.782Z,5.00
2018-04-13T22:39:21.556Z,5.00
2018-04-13T22:41:58.184Z,4.90
2018-04-13T22:44:42.811Z,5.00
2018-04-13T22:47:18.486Z,4.90
2018-04-13T22:49:48.478Z,4.90
2018-04-13T22:52:17.481Z,4.60
2018-04-13T22:54:47.281Z,4.60
2018-04-13T22:57:16.722Z,4.50
2018-04-13T22:59:45.781Z,4.40
2018-04-13T23:02:20.961Z,4.30
2018-04-13T23:04:53.324Z,4.30
2018-04-13T23:07:27.017Z,4.20
2018-04-13T23:09:59.641Z,4.40
2018-04-13T23:12:27.674Z,4.40
2018-04-13T23:15:01.638Z,4.40
2018-04-13T23:17:33.662Z,4.30
2018-04-13T23:20:06.334Z,4.20
2018-04-13T23:22:39.098Z,4.20
2018-04-13T23:25:08.077Z,4.40
2018-04-13T23:27:38.357Z,4.30
2018-04-13T23:30:06.359Z,4.20
2018-04-13T23:32:35.292Z,4.10
2018-04-13T23:35:15.636Z,4.20
2018-04-13T23:37:43.709Z,4.10
2018-04-13T23:40:12.753Z,4.20
2018-04-13T23:42:43.517Z,4.50
2018-04-13T23:45:13.074Z,4.50
2018-04-13T23:47:51.281Z,4.60
2018-04-13T23:50:26.081Z,4.60
2018-04-13T23:53:00.845Z,4.60
2018-04-13T23:55:35.672Z,4.60
2018-04-13T23:58:13.085Z,4.60
